Enniskillen, United Kingdom
Current Conditions -  °F | °C
As of 1:30 PM on Saturday 25 Oct 2014 (Local Time) from EISG Reporting Station
Broken Clouds Broken Clouds  
Wind Chill: 55°   Ceiling: 5000
Heat Index: 55°   Visibility: 6mi
Dew Point: 46°   Wind: 21mph
Humidity: 72%   Direction: 230°SW
Pressure: 29.77"   Gusts: NA
Location:  54.35°N, 7.64°W
Report Text: EISG 251230Z 23018KT 9999 SCT025 BKN050 13/08 Q1008
Loading
Personal Weather Stations






























Interactive Weather Map
Tropical Storm Tracking
New forecast layout! Learn more

10-Day Weather Forecast

Advertisements
Track Severe Weather on mobile